Time;durP1;ratioP1;P1;durP2;ratioP2;P2;SDS_P1;SDS_P2;PMS_P1;PMS_P2;Temp;Humidity;BMP_temperature;BMP_pressure;BME280_temperature;BME280_humidity;BME280_pressure;Samples;Min_cycle;Max_cycle;Signal;HPM_P1;HPM_P2
2022/02/02 00:01:14;;;;;;;16.48;4.22;;;;;;;4.70;95.83;99976.81;5044977;28;20048;-86
2022/02/02 00:03:47;;;;;;;16.95;5.50;;;;;;;4.66;95.49;99969.03;5043937;28;20047;-83
2022/02/02 00:06:19;;;;;;;19.75;4.18;;;;;;;4.58;95.66;99969.88;5028424;28;20051;-83
2022/02/02 00:08:55;;;;;;;18.00;3.75;;;;;;;4.52;94.99;99963.78;5030251;28;20460;-83
2022/02/02 00:14:20;;;;;;;16.42;3.65;;;;;;;4.41;94.40;99974.13;5040270;28;20062;-86
2022/02/02 00:16:51;;;;;;;22.40;4.50;;;;;;;4.42;94.56;99973.22;5036098;28;20056;-84
2022/02/02 00:19:34;;;;;;;18.85;4.30;;;;;;;4.42;93.13;99976.72;5024513;28;20043;-87
2022/02/02 00:22:10;;;;;;;25.77;3.67;;;;;;;4.39;93.42;99986.19;5044872;28;20986;-84
2022/02/02 00:24:50;;;;;;;17.90;3.88;;;;;;;4.38;94.56;99994.81;5038108;28;20051;-86
2022/02/02 00:27:21;;;;;;;22.88;3.85;;;;;;;4.43;94.22;99998.28;5032128;28;20047;-84
2022/02/02 00:29:53;;;;;;;19.52;4.03;;;;;;;4.52;93.49;100015.63;5037233;28;20136;-84
2022/02/02 00:32:30;;;;;;;19.20;4.47;;;;;;;4.61;92.41;100018.25;5021518;28;20233;-83
2022/02/02 00:34:58;;;;;;;17.17;3.50;;;;;;;4.67;92.58;100007.94;5014005;28;20230;-84
2022/02/02 00:37:25;;;;;;;28.50;3.88;;;;;;;4.73;92.10;100015.75;5029240;28;20101;-84
2022/02/02 00:39:52;;;;;;;24.05;4.15;;;;;;;4.78;91.22;100018.34;5039494;28;20047;-85
2022/02/02 00:42:19;;;;;;;20.92;5.03;;;;;;;4.81;91.42;100018.38;5020803;28;20052;-85
2022/02/02 00:44:53;;;;;;;21.65;4.30;;;;;;;4.85;91.21;100011.44;5037287;28;20147;-83
2022/02/02 00:47:23;;;;;;;25.60;4.47;;;;;;;4.91;90.83;100001.13;5033853;28;20047;-86
2022/02/02 00:49:51;;;;;;;18.80;5.45;;;;;;;4.95;90.62;100006.31;5032318;28;20044;-83
2022/02/02 00:52:23;;;;;;;21.45;4.05;;;;;;;4.99;89.91;100014.97;5028506;28;20051;-88
2022/02/02 00:54:52;;;;;;;27.63;5.10;;;;;;;5.01;89.10;100009.81;5036766;28;20058;-84
2022/02/02 00:57:19;;;;;;;25.35;4.15;;;;;;;5.03;89.55;99993.38;5041524;28;20048;-82
2022/02/02 00:59:46;;;;;;;23.15;3.78;;;;;;;5.05;89.22;100002.03;5038306;28;20047;-83
2022/02/02 01:02:13;;;;;;;21.83;4.25;;;;;;;5.10;88.93;99986.47;5030508;28;20055;-86
2022/02/02 01:04:41;;;;;;;18.20;3.67;;;;;;;5.11;88.60;100002.03;5031385;28;20044;-86
2022/02/02 01:07:15;;;;;;;31.30;4.80;;;;;;;5.11;89.05;100022.81;5022598;28;20052;-86
2022/02/02 01:09:47;;;;;;;24.65;4.40;;;;;;;5.11;90.00;100028.00;5042060;28;20143;-83
2022/02/02 01:20:49;;;;;;;21.77;3.47;;;;;;;4.91;92.94;100009.75;5035508;28;20225;-84
2022/02/02 01:28:46;;;;;;;26.02;4.05;;;;;;;4.91;91.60;100001.13;5005618;28;20048;-83
2022/02/02 01:31:15;;;;;;;25.98;4.57;;;;;;;4.94;90.77;99996.81;5034882;28;20502;-80
2022/02/02 01:33:42;;;;;;;20.60;4.18;;;;;;;5.01;89.35;99997.69;5043086;28;20055;-83
2022/02/02 01:36:09;;;;;;;24.08;3.90;;;;;;;5.02;89.50;99995.94;5047867;28;20048;-84
2022/02/02 01:38:37;;;;;;;17.90;4.18;;;;;;;5.06;89.70;100015.84;5040763;28;20139;-85
2022/02/02 01:41:07;;;;;;;27.08;4.28;;;;;;;5.07;89.04;100026.25;5057703;28;20052;-83
2022/02/02 01:43:39;;;;;;;16.33;5.15;;;;;;;5.08;90.21;100042.66;5044403;28;20064;-86
2022/02/02 01:46:10;;;;;;;7.65;2.97;;;;;;;4.98;93.52;100049.56;5053819;28;20163;-85
2022/02/02 01:48:44;;;;;;;14.27;3.08;;;;;;;4.84;95.68;100092.69;5044069;28;20040;-86
2022/02/02 01:51:31;;;;;;;15.32;2.15;;;;;;;4.56;96.20;100070.09;5057869;28;20053;-86
2022/02/02 01:54:03;;;;;;;7.32;1.52;;;;;;;4.16;98.39;100087.06;5042125;28;20058;-85
2022/02/02 01:56:32;;;;;;;7.85;1.65;;;;;;;3.88;100.00;100090.28;5056140;28;20068;-84
2022/02/02 01:59:06;;;;;;;4.45;1.00;;;;;;;3.69;100.00;100071.13;5028066;28;20048;-84
2022/02/02 02:01:33;;;;;;;8.23;1.20;;;;;;;3.54;100.00;100082.19;5049296;28;20131;-84
2022/02/02 02:04:00;;;;;;;4.03;1.05;;;;;;;3.43;100.00;100073.47;5049020;28;20036;-83
2022/02/02 02:06:27;;;;;;;4.55;1.10;;;;;;;3.33;100.00;100059.53;5040989;28;20122;-83
2022/02/02 02:08:54;;;;;;;5.57;0.70;;;;;;;3.21;100.00;100070.63;5035854;28;20033;-83
2022/02/02 02:11:22;;;;;;;3.42;1.25;;;;;;;3.17;100.00;100086.06;5052857;28;20078;-84
2022/02/02 02:16:46;;;;;;;5.53;0.85;;;;;;;3.08;100.00;100069.59;5054381;28;20789;-83
2022/02/02 02:19:12;;;;;;;3.35;1.00;;;;;;;3.07;100.00;100077.34;5056661;28;20051;-83
2022/02/02 02:21:39;;;;;;;6.10;1.60;;;;;;;3.06;100.00;100062.69;5051679;28;20135;-85
2022/02/02 02:24:06;;;;;;;14.13;3.05;;;;;;;3.09;100.00;100080.81;5046309;28;20048;-83
2022/02/02 02:26:39;;;;;;;15.45;1.75;;;;;;;3.13;100.00;100070.53;5050055;28;20052;-84
2022/02/02 02:32:00;;;;;;;7.55;2.55;;;;;;;3.24;100.00;100070.66;5025364;28;20487;-85
2022/02/02 02:34:39;;;;;;;8.77;2.67;;;;;;;3.28;100.00;100067.25;5075210;28;20041;-85
2022/02/02 02:37:37;;;;;;;13.95;2.88;;;;;;;3.31;100.00;100059.53;5039047;28;20682;-84
2022/02/02 02:40:19;;;;;;;17.45;3.00;;;;;;;3.37;100.00;100058.72;5047153;28;20044;-84
2022/02/02 02:56:25;;;;;;;13.32;2.75;;;;;;;3.69;99.25;100059.91;5040312;28;20057;-84
2022/02/02 02:59:01;;;;;;;12.77;3.83;;;;;;;3.77;98.70;100063.44;5053684;28;20048;-84
2022/02/02 03:02:01;;;;;;;13.20;4.20;;;;;;;3.87;99.02;100072.16;5031803;28;20052;-85
2022/02/02 03:32:29;;;;;;;20.55;3.72;;;;;;;4.33;96.65;100102.75;5041250;28;20158;-84
2022/02/02 03:35:10;;;;;;;11.90;3.53;;;;;;;4.30;98.12;100124.31;5050186;28;20052;-85
2022/02/02 03:51:30;;;;;;;15.27;3.33;;;;;;;3.87;100.00;100145.53;5041911;28;20036;-82
2022/02/02 03:56:56;;;;;;;14.68;3.50;;;;;;;3.81;100.00;100145.47;5036874;28;20045;-82
2022/02/02 03:59:39;;;;;;;15.82;3.45;;;;;;;3.75;100.00;100146.25;5031214;28;20072;-85
2022/02/02 04:02:16;;;;;;;15.93;3.22;;;;;;;3.67;100.00;100147.91;5031291;28;20052;-84
2022/02/02 04:04:50;;;;;;;20.63;3.00;;;;;;;3.61;100.00;100163.34;5064280;28;20048;-83
2022/02/02 04:07:21;;;;;;;8.80;2.58;;;;;;;3.56;98.45;100155.56;5007027;28;20522;-83
2022/02/02 04:09:49;;;;;;;12.18;2.50;;;;;;;3.52;98.44;100158.97;5043998;28;20052;-83
2022/02/02 04:12:28;;;;;;;14.25;2.50;;;;;;;3.50;96.74;100159.78;5044192;28;20146;-85
2022/02/02 04:17:49;;;;;;;10.05;1.58;;;;;;;3.45;95.35;100162.31;5056533;28;20027;-83
2022/02/02 04:54:07;;;;;;;7.70;3.00;;;;;;;3.60;98.45;100196.13;5044390;28;20172;-83
2022/02/02 04:56:46;;;;;;;13.50;3.47;;;;;;;3.59;98.83;100214.25;5039136;28;20650;-84
2022/02/02 04:59:28;;;;;;;12.85;2.65;;;;;;;3.55;99.11;100215.06;5043097;28;20572;-82
2022/02/02 05:07:51;;;;;;;11.30;3.25;;;;;;;3.66;98.34;100220.38;4965232;28;20133;-85
2022/02/02 05:10:28;;;;;;;11.32;4.60;;;;;;;3.72;97.43;100215.28;5040334;28;20136;-85
2022/02/02 05:18:58;;;;;;;16.90;4.10;;;;;;;3.58;97.33;100221.13;5026324;28;20048;-84
2022/02/02 05:41:32;;;;;;;27.35;7.60;;;;;;;3.89;93.77;100255.16;5049269;28;20497;-84
2022/02/02 05:44:32;;;;;;;20.05;5.18;;;;;;;3.92;93.29;100265.53;5037791;28;20048;-84
2022/02/02 05:50:34;;;;;;;24.63;6.90;;;;;;;4.05;92.56;100276.91;5063987;28;20040;-84
2022/02/02 05:53:05;;;;;;;23.95;4.97;;;;;;;4.10;91.99;100284.75;5037758;28;20060;-85
2022/02/02 05:56:06;;;;;;;18.95;4.30;;;;;;;4.13;91.78;100285.66;5026099;28;20052;-86
2022/02/02 05:58:55;;;;;;;20.48;5.35;;;;;;;4.17;91.50;100289.13;5028594;28;20057;-84
2022/02/02 06:01:25;;;;;;;19.30;4.55;;;;;;;4.19;91.57;100290.03;5027329;28;20136;-84
2022/02/02 06:04:11;;;;;;;24.38;4.80;;;;;;;4.21;90.87;100285.75;5028869;28;20048;-83
2022/02/02 06:06:46;;;;;;;28.52;7.15;;;;;;;4.19;91.31;100299.53;5038225;28;20038;-85
2022/02/02 06:09:18;;;;;;;20.45;4.25;;;;;;;4.18;91.54;100298.66;5046415;28;20055;-83
2022/02/02 06:12:07;;;;;;;20.60;4.47;;;;;;;4.19;91.10;100315.09;5036382;28;20052;-84
2022/02/02 06:14:39;;;;;;;24.85;6.15;;;;;;;4.20;91.00;100316.81;5057492;28;20043;-82
2022/02/02 06:17:08;;;;;;;30.77;4.05;;;;;;;4.23;90.63;100320.31;5045358;28;20061;-83
2022/02/02 06:19:39;;;;;;;17.15;3.42;;;;;;;4.26;90.41;100309.09;5038615;28;20135;-84
2022/02/02 06:22:32;;;;;;;17.35;4.15;;;;;;;4.25;90.43;100321.22;5030943;28;20048;-84
2022/02/02 06:25:34;;;;;;;16.58;4.20;;;;;;;4.27;90.59;100326.41;5044222;28;20037;-83
2022/02/02 06:31:01;;;;;;;16.35;3.28;;;;;;;4.30;90.81;100332.50;5028683;28;20041;-82
2022/02/02 06:34:01;;;;;;;;;;;;;;;4.32;90.67;100334.25;5050975;28;20055;-83
2022/02/02 06:36:41;;;;;;;15.60;3.47;;;;;;;4.32;90.98;100332.50;5016789;28;19928;-85
2022/02/02 06:39:12;;;;;;;18.73;3.30;;;;;;;4.33;91.45;100333.38;5047862;28;20044;-85
2022/02/02 06:42:02;;;;;;;15.02;4.60;;;;;;;4.28;92.29;100330.75;5035405;28;20056;-85
2022/02/02 06:44:47;;;;;;;16.05;3.88;;;;;;;4.24;92.44;100352.28;5025394;28;20044;-85
2022/02/02 06:47:18;;;;;;;16.08;4.20;;;;;;;4.26;92.82;100367.00;5045334;28;20056;-85
2022/02/02 06:53:10;;;;;;;21.17;5.07;;;;;;;4.30;92.48;100360.13;5027174;28;20049;-85
2022/02/02 06:56:37;;;;;;;28.67;5.63;;;;;;;4.35;92.05;100355.00;5044989;28;20972;-85
2022/02/02 07:08:01;;;;;;;13.38;3.63;;;;;;;4.35;92.50;100394.72;5028439;28;20067;-85
2022/02/02 07:13:48;;;;;;;20.50;2.92;;;;;;;4.36;92.70;100408.56;5042084;28;20050;-84
2022/02/02 07:16:27;;;;;;;16.50;4.35;;;;;;;4.37;92.77;100433.63;5035253;28;20070;-85
2022/02/02 07:19:07;;;;;;;20.73;3.75;;;;;;;4.36;92.74;100435.34;5053220;28;20080;-84
2022/02/02 07:24:53;;;;;;;13.30;4.40;;;;;;;4.39;91.01;100448.34;5043694;28;20052;-85
2022/02/02 07:27:38;;;;;;;28.80;6.65;;;;;;;4.45;90.55;100443.25;5024350;28;20112;-85
2022/02/02 07:30:21;;;;;;;24.80;3.50;;;;;;;4.50;89.39;100445.00;5046152;28;20078;-86
2022/02/02 07:33:06;;;;;;;17.70;3.30;;;;;;;4.51;89.40;100459.72;5032391;28;20091;-84
2022/02/02 07:36:00;;;;;;;13.45;4.10;;;;;;;4.50;88.89;100470.94;5055027;28;20049;-84
2022/02/02 07:38:46;;;;;;;22.17;3.40;;;;;;;4.42;89.18;100476.91;5040859;28;20036;-85
2022/02/02 07:41:48;;;;;;;19.38;3.90;;;;;;;4.43;89.16;100488.13;5054901;28;20313;-84
2022/02/02 07:44:21;;;;;;;19.95;4.20;;;;;;;4.44;88.35;100475.19;5052520;28;20048;-84
2022/02/02 07:46:52;;;;;;;13.20;3.47;;;;;;;4.38;87.98;100482.91;5058386;28;20041;-84
2022/02/02 07:49:30;;;;;;;13.15;3.63;;;;;;;4.27;88.51;100490.50;5049782;28;20067;-84
2022/02/02 07:51:59;;;;;;;13.00;3.28;;;;;;;4.14;89.40;100483.41;5051816;28;20058;-84
2022/02/02 07:54:58;;;;;;;21.52;4.03;;;;;;;4.01;90.39;100486.69;5055468;28;20048;-83
2022/02/02 08:00:36;;;;;;;16.08;2.97;;;;;;;4.09;90.87;100506.69;5046571;28;20064;-85
2022/02/02 08:03:09;;;;;;;16.63;3.40;;;;;;;4.18;90.88;100518.03;5054987;28;20405;-83
2022/02/02 08:06:07;;;;;;;16.88;4.13;;;;;;;4.17;90.65;100521.44;5051958;28;20059;-85
2022/02/02 08:08:38;;;;;;;34.65;5.07;;;;;;;4.19;91.21;100537.91;5034989;28;20049;-84
2022/02/02 08:11:28;;;;;;;12.13;2.90;;;;;;;4.22;90.63;100533.63;5038190;28;20060;-86
2022/02/02 08:14:11;;;;;;;14.60;3.28;;;;;;;4.28;90.08;100543.22;5016563;28;20048;-85
2022/02/02 08:16:50;;;;;;;20.50;3.38;;;;;;;4.37;89.32;100552.81;5051019;28;20190;-85
2022/02/02 08:19:18;;;;;;;16.63;3.63;;;;;;;4.44;88.69;100550.34;5032785;28;20041;-85
2022/02/02 08:21:45;;;;;;;13.68;3.03;;;;;;;4.45;88.82;100559.03;5038992;28;20055;-85
2022/02/02 08:24:13;;;;;;;16.13;2.75;;;;;;;4.47;88.48;100554.72;5030591;28;20062;-85
2022/02/02 08:26:41;;;;;;;18.50;2.65;;;;;;;4.52;88.04;100559.97;5023431;28;20059;-84
2022/02/02 08:29:09;;;;;;;17.52;4.38;;;;;;;4.60;87.44;100566.13;5044572;28;20780;-85
2022/02/02 08:31:39;;;;;;;10.18;3.03;;;;;;;4.69;85.72;100562.81;5030622;28;20367;-84
2022/02/02 08:34:10;;;;;;;16.88;2.72;;;;;;;4.79;84.83;100562.06;5049075;28;20047;-83
2022/02/02 08:42:16;;;;;;;18.02;3.95;;;;;;;4.95;83.22;100574.41;5047759;28;20070;-86
2022/02/02 08:45:02;;;;;;;26.05;3.10;;;;;;;4.94;82.50;100566.56;5030967;28;20052;-83
2022/02/02 08:47:36;;;;;;;10.38;2.67;;;;;;;4.92;81.52;100587.31;5036856;28;20056;-85
2022/02/02 08:50:07;;;;;;;21.70;3.38;;;;;;;4.95;82.01;100592.56;5032928;28;20051;-84
2022/02/02 08:52:50;;;;;;;13.15;3.03;;;;;;;5.01;81.43;100596.94;5041135;28;20198;-86
2022/02/02 08:55:21;;;;;;;12.00;3.70;;;;;;;5.02;81.58;100603.88;5058649;28;20056;-83
2022/02/02 08:58:08;;;;;;;14.20;2.50;;;;;;;5.10;81.11;100597.06;5064112;28;20040;-84
2022/02/02 09:00:35;;;;;;;18.27;3.00;;;;;;;5.13;80.21;100617.00;5060574;28;20055;-85
2022/02/02 09:05:43;;;;;;;12.70;2.80;;;;;;;5.21;79.92;100630.91;5049997;28;20122;-83
2022/02/02 09:08:10;;;;;;;10.73;3.45;;;;;;;5.26;79.41;100629.25;5028607;28;20048;-86
2022/02/02 09:24:35;;;;;;;15.75;3.20;;;;;;;5.45;77.89;100619.13;5040564;28;20036;-84
2022/02/02 09:32:53;;;;;;;10.50;2.97;;;;;;;5.58;77.51;100639.16;5034934;28;20047;-85
2022/02/02 09:35:20;;;;;;;13.60;2.33;;;;;;;5.59;77.36;100659.09;5024102;28;20184;-83
2022/02/02 09:37:48;;;;;;;19.83;3.78;;;;;;;5.57;77.19;100665.97;5028790;28;20202;-85
2022/02/02 09:40:44;;;;;;;14.32;2.85;;;;;;;5.60;77.15;100668.59;5019966;28;20158;-84
2022/02/02 09:43:03;;;;;;;13.65;3.25;;;;;;;5.63;75.94;100671.25;5040577;28;20051;-83
2022/02/02 09:45:30;;;;;;;13.63;2.47;;;;;;;5.63;75.92;100668.66;5038822;28;20047;-85
2022/02/02 09:48:04;;;;;;;10.15;3.63;;;;;;;5.61;76.62;100683.34;5044111;28;20845;-84
2022/02/02 09:50:35;;;;;;;8.90;2.72;;;;;;;5.60;75.88;100672.94;5048524;28;20147;-83
2022/02/02 09:53:04;;;;;;;17.00;3.90;;;;;;;5.59;76.77;100674.69;5064595;28;20050;-85
2022/02/02 09:55:57;;;;;;;12.35;2.40;;;;;;;5.59;76.35;100681.56;5044481;28;20435;-84
2022/02/02 09:58:56;;;;;;;12.13;2.40;;;;;;;5.57;76.31;100691.94;5048711;28;20800;-83
2022/02/02 10:04:32;;;;;;;13.05;2.40;;;;;;;5.85;75.41;100713.03;5042152;28;20067;-83
2022/02/02 10:13:36;;;;;;;10.98;2.63;;;;;;;6.61;71.87;100727.69;5020586;28;20087;-86
2022/02/02 10:16:05;;;;;;;16.13;2.70;;;;;;;6.66;71.66;100737.28;5012377;28;20060;-84
2022/02/02 10:18:37;;;;;;;17.10;3.47;;;;;;;6.71;71.10;100726.03;5059614;28;20052;-85
2022/02/02 10:21:04;;;;;;;16.08;5.97;;;;;;;6.64;71.17;100732.06;5046751;28;20614;-84
2022/02/02 10:23:39;;;;;;;10.07;2.50;;;;;;;6.56;71.46;100731.13;5020857;28;20051;-84
2022/02/02 10:26:22;;;;;;;17.90;3.15;;;;;;;6.54;71.28;100741.50;5024907;28;20091;-85
2022/02/02 10:28:53;;;;;;;13.50;2.90;;;;;;;6.49;71.01;100734.53;5022824;28;20616;-85
2022/02/02 10:31:20;;;;;;;10.43;3.10;;;;;;;6.50;71.08;100738.88;5035176;28;20147;-85
2022/02/02 10:33:47;;;;;;;14.27;2.58;;;;;;;6.51;70.44;100735.41;5028392;28;20056;-85
2022/02/02 10:36:20;;;;;;;13.38;3.13;;;;;;;6.56;70.45;100736.34;5022017;28;20134;-85
2022/02/02 10:39:07;;;;;;;14.50;2.83;;;;;;;6.54;70.46;100753.66;5032013;28;20048;-83
2022/02/02 10:41:56;;;;;;;11.38;2.38;;;;;;;6.62;69.72;100757.19;5021650;28;20052;-85
2022/02/02 10:44:32;;;;;;;14.70;4.43;;;;;;;6.89;69.51;100755.69;5026245;28;21288;-85
2022/02/02 10:47:18;;;;;;;9.48;2.28;;;;;;;7.06;67.86;100759.25;5042723;28;20059;-84
2022/02/02 10:49:55;;;;;;;8.98;2.53;;;;;;;7.13;68.11;100754.97;5046343;28;20097;-83
2022/02/02 10:52:45;;;;;;;10.40;2.28;;;;;;;7.11;67.23;100770.59;5045209;28;20047;-84
2022/02/02 10:55:56;;;;;;;9.48;3.05;;;;;;;7.05;67.29;100775.75;5043000;28;20623;-86
2022/02/02 10:58:42;;;;;;;10.75;2.13;;;;;;;6.77;68.37;100778.13;5052324;28;20048;-85
2022/02/02 11:01:24;;;;;;;16.27;3.75;;;;;;;6.52;69.66;100792.66;5030821;28;20048;-83
2022/02/02 11:12:16;;;;;;;11.27;3.65;;;;;;;5.80;76.53;100805.63;5063745;28;20053;-84
2022/02/02 11:15:15;;;;;;;18.65;6.20;;;;;;;5.66;78.93;100812.38;5051616;28;20498;-84
2022/02/02 11:18:47;;;;;;;13.43;3.03;;;;;;;5.67;79.29;100812.41;5042197;28;20094;-85
2022/02/02 11:21:43;;;;;;;15.23;3.03;;;;;;;5.82;76.40;100822.13;5086639;28;20048;-86
2022/02/02 11:24:21;;;;;;;7.38;2.03;;;;;;;5.76;74.71;100825.53;5053810;28;20072;-84
2022/02/02 11:26:51;;;;;;;9.43;4.53;;;;;;;5.65;74.51;100834.03;5055830;28;20352;-84
2022/02/02 11:29:39;;;;;;;7.88;1.95;;;;;;;5.76;73.69;100833.31;5032172;28;20080;-84
2022/02/02 11:32:14;;;;;;;15.70;2.58;;;;;;;6.01;71.81;100832.78;5051544;28;20032;-86
2022/02/02 11:34:42;;;;;;;8.38;1.67;;;;;;;6.12;71.49;100831.19;5065462;28;20074;-84
2022/02/02 11:38:17;;;;;;;8.00;2.50;;;;;;;6.12;69.66;100845.06;5050686;28;20044;-84
2022/02/02 11:41:10;;;;;;;10.60;2.72;;;;;;;6.32;70.23;100834.03;4999075;28;20048;-83
2022/02/02 11:44:17;;;;;;;11.35;2.22;;;;;;;6.73;67.86;100848.34;5081261;28;20054;-85
2022/02/02 11:47:08;;;;;;;11.57;2.22;;;;;;;6.84;67.88;100851.91;5017469;28;20052;-85
2022/02/02 11:49:52;;;;;;;12.68;2.90;;;;;;;6.91;68.44;100860.63;5048702;28;20497;-84
2022/02/02 11:52:50;;;;;;;7.57;2.22;;;;;;;6.84;66.46;100846.69;5066369;28;20109;-83
2022/02/02 11:55:17;;;;;;;4.93;1.42;;;;;;;6.67;67.13;100854.34;5042009;28;20052;-83
2022/02/02 11:58:12;;;;;;;7.45;1.80;;;;;;;6.63;66.64;100849.97;5051257;28;20084;-84
2022/02/02 12:01:06;;;;;;;9.15;2.28;;;;;;;6.69;66.79;100877.75;5019697;28;20074;-84
2022/02/02 12:03:56;;;;;;;17.45;3.13;;;;;;;6.66;67.48;100868.19;5028836;28;21678;-86
2022/02/02 12:06:41;;;;;;;13.43;2.70;;;;;;;6.74;66.62;100855.28;5038825;28;20056;-84
2022/02/02 12:09:21;;;;;;;8.40;2.45;;;;;;;6.86;66.58;100870.16;5033513;28;20136;-83
2022/02/02 12:46:39;;;;;;;2.80;1.33;;;;;;;6.27;64.96;100885.09;5041736;28;20078;-84
2022/02/02 12:49:04;;;;;;;10.55;2.03;;;;;;;6.51;64.46;100881.91;5047331;28;20040;-86
2022/02/02 12:57:10;;;;;;;6.45;1.27;;;;;;;7.01;62.18;100892.84;5039656;28;20163;-84
2022/02/02 13:00:06;;;;;;;8.25;1.27;;;;;;;6.91;62.61;100913.56;5027852;28;20048;-85
2022/02/02 13:02:40;;;;;;;6.80;1.23;;;;;;;6.85;63.60;100930.88;5026126;28;20594;-84
2022/02/02 13:05:11;;;;;;;12.70;2.58;;;;;;;6.72;65.04;100922.91;5042161;28;20147;-85
2022/02/02 13:07:41;;;;;;;3.35;1.00;;;;;;;6.62;66.01;100929.75;5030984;28;20096;-85
2022/02/02 13:10:12;;;;;;;3.75;1.25;;;;;;;6.67;66.54;100914.19;5041052;28;20075;-84
2022/02/02 13:12:53;;;;;;;7.68;1.45;;;;;;;6.59;67.39;100918.44;5037545;28;20044;-83
2022/02/02 13:15:35;;;;;;;12.00;2.90;;;;;;;6.37;67.65;100915.56;5049450;28;20046;-83
2022/02/02 13:18:18;;;;;;;7.70;1.38;;;;;;;6.07;67.38;100913.44;5060997;28;20051;-84
2022/02/02 13:20:57;;;;;;;2.80;1.40;;;;;;;5.84;68.09;100926.06;5053570;28;20037;-86
2022/02/02 13:23:41;;;;;;;9.88;1.92;;;;;;;5.71;66.58;100928.50;5057480;28;20111;-84
2022/02/02 13:26:15;;;;;;;3.80;1.42;;;;;;;5.61;67.19;100927.44;5044159;28;20056;-86
2022/02/02 13:28:51;;;;;;;;;;;;;;;5.57;67.68;100924.81;5028941;28;20554;-86
2022/02/02 13:31:46;;;;;;;7.88;2.13;;;;;;;5.56;68.08;100928.25;5049290;28;19930;-83
2022/02/02 13:34:44;;;;;;;3.38;1.10;;;;;;;5.70;66.15;100941.47;5031172;28;20052;-83
2022/02/02 13:37:38;;;;;;;5.82;1.45;;;;;;;5.77;64.59;100943.28;5030477;28;20052;-84
2022/02/02 13:48:57;;;;;;;7.72;1.67;;;;;;;6.53;60.78;100968.66;5038165;28;20044;-86
2022/02/02 13:58:00;;;;;;;4.65;1.40;;;;;;;6.43;60.71;100970.25;5096767;27;20418;-84
2022/02/02 14:00:34;;;;;;;7.07;1.50;;;;;;;6.48;60.90;100991.13;5078849;28;20121;-85
2022/02/02 14:31:10;;;;;;;20.70;1.67;;;;;;;5.33;63.28;101022.16;5060575;28;20043;-82
2022/02/02 14:33:41;;;;;;;5.28;0.93;;;;;;;5.30;63.38;101024.72;5054250;28;20075;-83
2022/02/02 14:36:11;;;;;;;3.42;0.70;;;;;;;5.25;63.69;101029.84;5060954;28;20056;-85
2022/02/02 14:38:44;;;;;;;8.10;1.05;;;;;;;5.23;63.93;101041.91;5049961;28;20048;-85
2022/02/02 14:41:21;;;;;;;6.68;1.35;;;;;;;5.20;64.08;101043.56;5047112;28;20068;-85
2022/02/02 14:43:56;;;;;;;11.98;1.58;;;;;;;5.17;64.51;101040.91;5052488;28;20054;-84
2022/02/02 14:46:30;;;;;;;7.75;1.25;;;;;;;5.12;65.16;101031.34;5052349;28;20155;-83
2022/02/02 14:49:04;;;;;;;5.93;2.23;;;;;;;5.11;64.67;101033.88;5060067;28;20044;-84
2022/02/02 14:51:40;;;;;;;11.85;1.48;;;;;;;5.06;64.70;101041.56;5051807;28;20494;-84
2022/02/02 14:54:16;;;;;;;4.25;1.27;;;;;;;5.03;64.84;101044.13;5044315;28;20068;-83
2022/02/02 15:27:18;;;;;;;8.20;1.85;;;;;;;4.77;68.37;101137.84;5038043;28;20057;-83
2022/02/02 15:29:57;;;;;;;8.93;1.45;;;;;;;4.77;68.54;101144.72;5020427;28;20049;-84
2022/02/02 15:32:26;;;;;;;7.85;1.75;;;;;;;4.78;69.00;101144.78;5026313;28;20057;-85
2022/02/02 15:34:56;;;;;;;8.40;1.77;;;;;;;4.79;68.75;101145.63;5008363;28;20807;-83
2022/02/02 15:37:31;;;;;;;11.57;2.75;;;;;;;4.83;69.08;101152.66;5024211;28;20060;-85
2022/02/02 15:40:10;;;;;;;8.95;2.88;;;;;;;4.82;69.36;101153.47;5026715;28;20680;-85
2022/02/02 15:42:50;;;;;;;9.00;1.80;;;;;;;4.76;69.63;101168.94;5032175;28;20044;-84
2022/02/02 15:59:26;;;;;;;7.93;2.35;;;;;;;4.05;77.83;101200.84;5034623;28;20047;-85
2022/02/02 16:02:09;;;;;;;10.98;2.63;;;;;;;3.95;78.27;101205.78;5028308;28;20151;-86
2022/02/02 16:04:38;;;;;;;10.20;2.88;;;;;;;3.85;79.38;101193.44;5039247;28;20127;-83
2022/02/02 16:07:12;;;;;;;16.35;3.20;;;;;;;3.78;81.01;101205.34;5025144;28;20048;-82
2022/02/02 16:09:50;;;;;;;;;;;;;;;3.69;82.30;101211.97;5039782;28;23101;-84
2022/02/02 16:12:23;;;;;;;9.05;2.20;;;;;;;3.60;82.20;101210.88;5037909;28;19928;-86
2022/02/02 16:15:00;;;;;;;12.52;2.15;;;;;;;3.56;83.49;101215.91;5038394;28;20060;-86
2022/02/02 16:17:43;;;;;;;10.10;2.90;;;;;;;3.48;83.79;101216.56;5030891;28;20047;-86
2022/02/02 16:31:38;;;;;;;12.80;2.63;;;;;;;3.10;86.09;101237.00;5038103;28;20124;-84
2022/02/02 16:36:49;;;;;;;6.78;2.53;;;;;;;3.00;87.18;101236.66;5040903;28;20084;-84
2022/02/02 16:39:22;;;;;;;8.73;2.03;;;;;;;2.97;87.81;101242.59;5028252;28;20055;-83
2022/02/02 16:45:06;;;;;;;8.15;2.38;;;;;;;2.87;87.65;101236.28;4995533;28;20136;-86
2022/02/02 16:47:33;;;;;;;11.82;2.45;;;;;;;2.81;88.27;101243.84;4967767;28;20059;-85
2022/02/02 16:50:01;;;;;;;10.05;3.08;;;;;;;2.78;89.26;101248.91;5010240;28;20143;-84
2022/02/02 16:52:30;;;;;;;10.27;4.03;;;;;;;2.76;89.69;101247.97;5005650;28;20067;-85
2022/02/02 16:55:00;;;;;;;11.52;2.45;;;;;;;2.77;90.59;101258.38;5033371;28;20067;-84
2022/02/02 16:57:42;;;;;;;12.35;2.80;;;;;;;2.77;90.65;101255.78;5024786;28;20048;-83
2022/02/02 17:26:10;;;;;;;12.88;3.80;;;;;;;2.36;94.56;101293.16;5009292;28;20067;-85
2022/02/02 17:30:54;;;;;;;9.65;5.70;;;;;;;2.28;95.62;101292.88;5029911;28;20040;-85
2022/02/02 17:33:25;;;;;;;8.75;3.33;;;;;;;2.25;95.87;101297.94;5038227;28;20036;-85
2022/02/02 17:36:07;;;;;;;8.30;3.00;;;;;;;2.24;96.00;101302.25;5048082;28;20036;-85
2022/02/02 17:38:45;;;;;;;14.48;4.00;;;;;;;2.22;96.35;101293.56;5012552;28;20059;-84
2022/02/02 17:41:22;;;;;;;18.35;5.22;;;;;;;2.18;96.70;101309.78;5011217;28;20045;-83
2022/02/02 17:44:09;;;;;;;12.05;4.85;;;;;;;2.18;97.01;101320.09;5030303;28;20041;-83
2022/02/02 18:00:55;;;;;;;14.75;6.55;;;;;;;2.20;97.78;101331.34;5036229;28;20040;-82
2022/02/02 18:03:54;;;;;;;13.65;4.60;;;;;;;2.18;98.21;101333.03;5040788;28;20098;-84
2022/02/02 18:20:03;;;;;;;14.40;6.05;;;;;;;2.06;98.98;101358.38;5031007;28;20086;-83
2022/02/02 18:22:36;;;;;;;25.15;8.02;;;;;;;2.11;99.06;101364.59;5031485;28;20195;-85
2022/02/02 18:25:10;;;;;;;16.80;6.45;;;;;;;2.12;99.13;101351.72;5040247;28;20041;-84
2022/02/02 18:27:52;;;;;;;13.68;4.80;;;;;;;2.13;98.40;101350.91;5047888;28;20080;-87
2022/02/02 18:30:32;;;;;;;14.15;5.93;;;;;;;2.11;98.86;101349.09;5042750;28;20055;-85
2022/02/02 18:33:24;;;;;;;16.05;4.82;;;;;;;2.06;99.00;101355.81;5028008;28;20472;-86
2022/02/02 18:35:58;;;;;;;12.15;5.10;;;;;;;2.00;99.09;101360.75;5041682;28;20751;-85
2022/02/02 18:42:20;;;;;;;18.48;4.43;;;;;;;1.91;100.00;101369.03;5033369;28;20352;-84
2022/02/02 18:44:36;;;;;;;12.95;4.10;;;;;;;1.89;100.00;101368.06;5039930;28;20780;-84
2022/02/02 18:49:58;;;;;;;15.73;4.85;;;;;;;1.87;99.99;101373.19;5020722;28;20055;-84
2022/02/02 18:55:38;;;;;;;9.88;3.33;;;;;;;1.90;100.00;101382.75;5038514;28;20063;-82
2022/02/02 18:58:27;;;;;;;11.88;5.28;;;;;;;2.00;100.00;101382.28;5043265;28;20040;-85
2022/02/02 19:04:05;;;;;;;10.85;3.90;;;;;;;2.20;100.00;101375.28;5033520;28;20146;-84
2022/02/02 19:15:17;;;;;;;22.60;5.63;;;;;;;2.42;98.78;101376.94;5031384;28;20159;-84
2022/02/02 19:37:17;;;;;;;14.15;3.78;;;;;;;2.25;97.58;101359.94;5033669;28;20052;-87
2022/02/02 19:40:18;;;;;;;18.92;5.22;;;;;;;2.11;98.05;101368.09;5041050;28;20045;-86
2022/02/02 19:56:44;;;;;;;17.98;3.80;;;;;;;1.91;98.02;101362.16;5027611;28;20048;-86
2022/02/02 20:02:13;;;;;;;10.75;4.03;;;;;;;1.92;98.85;101368.22;5032734;28;20630;-85
2022/02/02 20:07:46;;;;;;;14.77;7.68;;;;;;;2.00;98.40;101368.50;5041925;28;20067;-83
2022/02/02 20:13:23;;;;;;;;;;;;;;;;;;;;;
2022/02/02 20:16:04;;;;;;;7.60;4.45;;;;;;;2.00;97.41;101376.25;5037354;28;20135;-87
2022/02/02 20:18:41;;;;;;;12.32;5.45;;;;;;;1.96;97.02;101372.66;5042490;28;20040;-84
2022/02/02 20:21:22;;;;;;;26.63;8.13;;;;;;;1.92;97.73;101371.66;5024537;28;20048;-86
2022/02/02 20:23:51;;;;;;;17.23;6.70;;;;;;;1.89;97.41;101370.66;5035994;28;20045;-89